Time;durP1;ratioP1;P1;durP2;ratioP2;P2;SDS_P1;SDS_P2;PMS_P1;PMS_P2;Temp;Humidity;BMP_temperature;BMP_pressure;BME280_temperature;BME280_humidity;BME280_pressure;Samples;Min_cycle;Max_cycle;Signal;HPM_P1;HPM_P2
2022/04/14 00:01:36;;;;;;;18.77;10.45;;;;;;;11.05;90.09;101969.03;5062817;28;20036;-62
2022/04/14 00:04:01;;;;;;;20.27;11.40;;;;;;;11.05;89.87;101962.81;5062405;28;20043;-62
2022/04/14 00:06:26;;;;;;;25.67;12.52;;;;;;;11.08;90.49;101963.50;5062132;28;20048;-63
2022/04/14 00:08:52;;;;;;;20.25;11.05;;;;;;;11.11;89.86;101958.03;5062244;28;20045;-62
2022/04/14 00:11:18;;;;;;;23.15;11.15;;;;;;;11.04;90.11;101961.06;5062311;28;20044;-62
2022/04/14 00:13:44;;;;;;;26.17;12.80;;;;;;;11.00;90.66;101956.84;5063074;28;20091;-62
2022/04/14 00:16:09;;;;;;;27.83;13.10;;;;;;;10.98;90.50;101956.88;5062514;28;20480;-62
2022/04/14 00:18:34;;;;;;;28.48;14.18;;;;;;;10.88;91.06;101961.78;5062843;28;20032;-62
2022/04/14 00:21:00;;;;;;;25.05;13.48;;;;;;;10.89;91.24;101957.31;5074307;28;20541;-63
2022/04/14 00:23:26;;;;;;;27.33;13.52;;;;;;;10.92;91.39;101951.84;5067831;28;20491;-62
2022/04/14 00:25:51;;;;;;;29.25;14.68;;;;;;;10.87;91.28;101949.38;5103199;28;20047;-62
2022/04/14 00:28:17;;;;;;;23.23;13.40;;;;;;;10.83;90.92;101947.78;5102661;28;20081;-63
2022/04/14 00:30:42;;;;;;;26.17;12.43;;;;;;;10.85;91.05;101939.75;5102974;28;20442;-63
2022/04/14 00:33:08;;;;;;;27.95;13.50;;;;;;;10.95;90.55;101938.38;5104428;28;20465;-62
2022/04/14 00:35:33;;;;;;;22.95;12.80;;;;;;;10.99;90.40;101941.72;5104547;28;20136;-62
2022/04/14 00:37:59;;;;;;;25.48;13.35;;;;;;;10.89;90.60;101942.19;5083849;28;20556;-62
2022/04/14 00:40:24;;;;;;;29.52;15.18;;;;;;;10.87;90.72;101941.38;5083263;28;20472;-62
2022/04/14 00:42:50;;;;;;;29.55;14.70;;;;;;;10.93;90.36;101937.56;5082994;28;20044;-62
2022/04/14 00:45:15;;;;;;;23.63;12.93;;;;;;;10.95;90.84;101933.03;5064086;28;20047;-63
2022/04/14 00:47:41;;;;;;;26.70;13.35;;;;;;;10.89;90.32;101938.63;5082154;28;20545;-62
2022/04/14 00:50:07;;;;;;;26.40;13.80;;;;;;;10.87;90.24;101938.72;5082446;28;20120;-62
2022/04/14 00:52:32;;;;;;;24.42;12.98;;;;;;;10.84;90.10;101932.66;5082337;28;20101;-62
2022/04/14 00:54:58;;;;;;;23.83;13.07;;;;;;;10.87;89.80;101936.03;5082496;28;20485;-61
2022/04/14 00:57:23;;;;;;;31.65;14.18;;;;;;;10.88;89.89;101935.09;5082459;28;20097;-62
2022/04/14 00:59:49;;;;;;;24.63;13.20;;;;;;;10.81;90.19;101939.00;5081798;28;20439;-62
2022/04/14 01:02:15;;;;;;;29.70;14.70;;;;;;;10.88;89.73;101939.56;5081688;28;20036;-62
2022/04/14 01:04:40;;;;;;;25.92;13.88;;;;;;;10.86;89.13;101946.81;5081665;28;20027;-62
2022/04/14 01:07:07;;;;;;;31.45;14.93;;;;;;;10.83;89.54;101938.94;5082095;28;20032;-62
2022/04/14 01:09:33;;;;;;;27.85;14.05;;;;;;;10.84;89.35;101935.31;5082935;28;20043;-62
2022/04/14 01:11:59;;;;;;;29.95;15.13;;;;;;;10.79;89.42;101932.00;5081882;28;20101;-62
2022/04/14 01:14:35;;;;;;;25.70;12.00;;;;;;;10.75;89.68;101922.44;5081260;28;20055;-62
2022/04/14 01:17:07;;;;;;;25.15;13.85;;;;;;;10.74;89.25;101929.53;5081660;28;20670;-62
2022/04/14 01:19:34;;;;;;;32.63;16.05;;;;;;;10.71;90.43;101928.84;5081710;28;20046;-62
2022/04/14 01:22:11;;;;;;;30.88;14.93;;;;;;;10.66;90.08;101931.72;5063503;28;20385;-62
2022/04/14 01:24:38;;;;;;;30.40;14.95;;;;;;;10.73;90.04;101924.28;5081542;28;20085;-63
2022/04/14 01:27:04;;;;;;;33.15;15.02;;;;;;;10.65;90.72;101922.00;5082121;28;20032;-63
2022/04/14 01:29:30;;;;;;;30.35;14.70;;;;;;;10.64;90.44;101920.22;5080656;28;20582;-62
2022/04/14 01:31:56;;;;;;;31.08;15.85;;;;;;;10.56;90.87;101922.41;5081486;28;20044;-62
2022/04/14 01:34:22;;;;;;;26.23;13.18;;;;;;;10.49;91.26;101932.50;5082048;28;20047;-62
2022/04/14 01:36:47;;;;;;;28.95;13.85;;;;;;;10.47;90.96;101934.34;5081604;28;20114;-63
2022/04/14 01:39:14;;;;;;;28.17;14.45;;;;;;;10.44;91.04;101923.84;5081967;28;20131;-62
2022/04/14 01:41:43;;;;;;;35.88;15.50;;;;;;;10.46;91.54;101926.44;5082009;28;20131;-62
2022/04/14 01:44:10;;;;;;;37.88;16.50;;;;;;;10.36;91.24;101926.84;5081963;28;20036;-62
2022/04/14 01:46:37;;;;;;;30.80;15.55;;;;;;;10.30;92.12;101928.94;5063515;28;20408;-62
2022/04/14 01:49:03;;;;;;;38.33;17.42;;;;;;;10.33;92.01;101923.44;5064081;28;20557;-63
2022/04/14 01:51:29;;;;;;;42.30;18.30;;;;;;;10.27;92.08;101926.38;5081694;28;20310;-62
2022/04/14 01:53:54;;;;;;;31.33;16.33;;;;;;;10.24;91.91;101922.06;5049020;28;20039;-62
2022/04/14 01:56:21;;;;;;;37.15;18.70;;;;;;;10.33;91.67;101932.31;5061035;28;20045;-62
2022/04/14 01:58:47;;;;;;;33.75;16.50;;;;;;;10.28;91.80;101926.31;5076463;28;20047;-62
2022/04/14 02:01:13;;;;;;;34.65;17.88;;;;;;;10.23;91.50;101933.63;5081691;28;20062;-63
2022/04/14 02:03:38;;;;;;;40.88;19.60;;;;;;;10.22;91.68;101934.56;5081846;28;20040;-63
2022/04/14 02:06:04;;;;;;;40.95;19.63;;;;;;;10.09;91.91;101928.91;5081128;28;20081;-64
2022/04/14 02:08:29;;;;;;;46.53;22.00;;;;;;;10.07;92.43;101933.44;5080936;28;20040;-62
2022/04/14 02:10:55;;;;;;;47.90;21.77;;;;;;;10.24;92.59;101934.50;5081199;28;20039;-62
2022/04/14 02:13:20;;;;;;;47.45;20.95;;;;;;;10.19;91.79;101937.38;5081189;28;20067;-62
2022/04/14 02:15:46;;;;;;;44.28;22.10;;;;;;;10.17;91.72;101943.69;5081511;28;20055;-63
2022/04/14 02:18:11;;;;;;;37.13;17.02;;;;;;;10.08;91.43;101931.63;5084088;28;20044;-62
2022/04/14 02:20:37;;;;;;;37.22;19.13;;;;;;;10.03;90.79;101934.50;5082642;28;20043;-63
2022/04/14 02:23:03;;;;;;;26.60;14.65;;;;;;;9.93;90.33;101938.47;5080317;28;20570;-62
2022/04/14 02:25:28;;;;;;;25.67;14.55;;;;;;;9.99;91.63;101942.69;5080108;28;20040;-61
2022/04/14 02:27:53;;;;;;;25.92;13.73;;;;;;;10.15;91.84;101945.56;5080054;28;20036;-62
2022/04/14 02:30:19;;;;;;;41.33;18.75;;;;;;;10.09;90.76;101944.91;5079536;28;20052;-62
2022/04/14 02:32:44;;;;;;;21.60;13.68;;;;;;;10.02;91.56;101943.41;5080180;28;20461;-62
2022/04/14 02:35:10;;;;;;;40.20;19.55;;;;;;;9.99;90.88;101946.25;5080369;28;20051;-62
2022/04/14 02:37:35;;;;;;;34.08;17.05;;;;;;;9.98;90.88;101956.94;5079708;28;20123;-62
2022/04/14 02:40:01;;;;;;;32.55;15.93;;;;;;;9.65;90.78;101943.28;5082353;28;20047;-62
2022/04/14 02:42:27;;;;;;;13.02;9.32;;;;;;;9.44;92.35;101952.97;5084716;28;20487;-62
2022/04/14 02:44:52;;;;;;;16.15;10.57;;;;;;;9.36;92.13;101955.13;5066638;28;20044;-62
2022/04/14 02:47:18;;;;;;;12.63;8.82;;;;;;;9.17;91.49;101957.63;5084880;28;20408;-62
2022/04/14 02:49:43;;;;;;;14.00;9.32;;;;;;;9.16;91.89;101955.91;5084817;28;20512;-63
2022/04/14 02:52:08;;;;;;;21.73;9.65;;;;;;;9.05;92.60;101956.34;5065610;28;20430;-62
2022/04/14 02:54:37;;;;;;;18.83;11.85;;;;;;;9.05;92.36;101967.84;5084320;28;20076;-62
2022/04/14 02:57:06;;;;;;;23.38;12.73;;;;;;;9.03;92.68;101964.34;5083934;28;20469;-62
2022/04/14 02:59:33;;;;;;;24.58;12.88;;;;;;;9.11;92.62;101958.75;5083760;28;20373;-62
2022/04/14 03:01:59;;;;;;;23.80;13.00;;;;;;;9.12;92.18;101962.28;5083727;28;20064;-62
2022/04/14 03:04:24;;;;;;;23.00;11.88;;;;;;;9.13;91.88;101969.31;5083302;28;20553;-63
2022/04/14 03:06:51;;;;;;;27.38;13.80;;;;;;;9.23;91.40;101966.22;5083062;28;20036;-61
2022/04/14 03:09:16;;;;;;;25.13;13.77;;;;;;;9.25;91.24;101964.41;5083442;28;20072;-62
2022/04/14 03:11:42;;;;;;;23.20;12.13;;;;;;;9.12;91.15;101963.13;5083561;28;20393;-62
2022/04/14 03:14:07;;;;;;;21.50;12.10;;;;;;;9.04;91.67;101971.44;5084008;28;20535;-62
2022/04/14 03:16:32;;;;;;;18.98;11.63;;;;;;;9.02;92.97;101967.94;5084011;28;20047;-62
2022/04/14 03:18:58;;;;;;;23.00;12.77;;;;;;;9.24;92.16;101964.47;5065783;28;20032;-62
2022/04/14 03:21:23;;;;;;;26.23;12.57;;;;;;;9.33;91.74;101966.72;5093465;28;20534;-62
2022/04/14 03:23:50;;;;;;;27.25;14.02;;;;;;;9.28;92.00;101961.59;5104947;28;20036;-63
2022/04/14 03:26:15;;;;;;;25.75;14.30;;;;;;;9.33;91.90;101959.63;5085776;28;20499;-62
2022/04/14 03:28:41;;;;;;;28.15;12.93;;;;;;;9.38;92.08;101964.75;5104461;28;20346;-62
2022/04/14 03:31:06;;;;;;;24.25;12.80;;;;;;;9.40;91.70;101960.25;5104256;28;20484;-62
2022/04/14 03:33:32;;;;;;;26.38;14.70;;;;;;;9.42;91.63;101955.72;5103943;28;20135;-62
2022/04/14 03:35:57;;;;;;;33.22;14.80;;;;;;;9.49;91.91;101959.03;5095911;28;20028;-63
2022/04/14 03:38:24;;;;;;;30.58;13.10;;;;;;;9.51;91.89;101951.81;5082946;28;20032;-63
2022/04/14 03:40:50;;;;;;;28.65;14.85;;;;;;;9.54;91.60;101954.38;5082370;28;20540;-63
2022/04/14 03:43:16;;;;;;;34.67;16.23;;;;;;;9.52;92.51;101956.22;5052026;28;20036;-63
2022/04/14 03:45:41;;;;;;;31.75;15.65;;;;;;;9.51;92.62;101960.69;5061616;28;20123;-62
2022/04/14 03:48:06;;;;;;;25.73;13.85;;;;;;;9.36;92.13;101963.09;5061955;28;20508;-62
2022/04/14 03:50:32;;;;;;;30.38;14.43;;;;;;;9.29;92.36;101958.03;5062190;28;20303;-62
2022/04/14 03:52:57;;;;;;;23.17;13.20;;;;;;;9.26;92.76;101957.28;5044081;28;20044;-62
2022/04/14 03:55:23;;;;;;;23.77;12.77;;;;;;;9.20;92.82;101957.53;5064839;28;20032;-62
2022/04/14 03:57:48;;;;;;;28.50;14.23;;;;;;;9.24;92.81;101965.31;5069351;28;20036;-62
2022/04/14 04:00:14;;;;;;;33.67;14.07;;;;;;;9.31;93.01;101960.63;5082831;28;20047;-62
2022/04/14 04:02:39;;;;;;;26.85;13.40;;;;;;;9.28;92.61;101952.75;5064078;28;20039;-62
2022/04/14 04:05:05;;;;;;;28.55;15.00;;;;;;;9.26;93.23;101958.13;5082273;28;20036;-62
2022/04/14 04:07:31;;;;;;;32.25;15.88;;;;;;;9.33;92.67;101959.63;5082999;28;20455;-62
2022/04/14 04:09:56;;;;;;;35.78;15.73;;;;;;;9.25;92.37;101958.22;5082851;28;20035;-62
2022/04/14 04:12:22;;;;;;;33.05;14.68;;;;;;;9.21;92.41;101960.13;5082334;28;20044;-62
2022/04/14 04:14:48;;;;;;;32.80;14.90;;;;;;;9.15;92.41;101955.03;5082055;28;20052;-62
2022/04/14 04:17:15;;;;;;;28.08;13.25;;;;;;;9.10;91.87;101961.47;5076159;28;20062;-61
2022/04/14 04:19:40;;;;;;;24.35;13.30;;;;;;;9.00;92.06;101964.50;5052147;28;20062;-62
2022/04/14 04:22:08;;;;;;;23.30;12.05;;;;;;;9.02;91.81;101953.78;5068899;28;20033;-61
2022/04/14 04:24:34;;;;;;;26.48;13.90;;;;;;;8.95;91.67;101962.94;5048224;28;20039;-62
2022/04/14 04:26:59;;;;;;;25.23;13.60;;;;;;;8.93;91.38;101962.13;5064057;28;20520;-62
2022/04/14 04:29:25;;;;;;;23.17;12.75;;;;;;;8.89;91.60;101961.38;5063865;28;20044;-63
2022/04/14 04:31:50;;;;;;;24.13;12.75;;;;;;;8.86;91.26;101960.63;5063613;28;20032;-62
2022/04/14 04:34:17;;;;;;;23.48;12.70;;;;;;;8.90;91.30;101960.44;5064540;28;20493;-62
2022/04/14 04:36:42;;;;;;;27.10;13.85;;;;;;;8.86;90.88;101974.78;5065868;28;20119;-62
2022/04/14 04:39:08;;;;;;;23.95;14.35;;;;;;;8.64;91.36;101973.88;5065029;28;20473;-63
2022/04/14 04:41:33;;;;;;;25.02;13.77;;;;;;;8.53;91.34;101982.22;5050340;28;20048;-63
2022/04/14 04:43:59;;;;;;;23.30;14.00;;;;;;;8.53;91.99;101988.44;5069572;28;20036;-62
2022/04/14 04:46:24;;;;;;;24.48;12.25;;;;;;;8.48;91.59;101987.72;5064858;28;20036;-62
2022/04/14 04:48:50;;;;;;;24.10;13.13;;;;;;;8.40;91.63;101988.91;5062420;28;20076;-63
2022/04/14 04:51:17;;;;;;;26.58;14.43;;;;;;;8.55;90.76;101985.72;5063987;28;20090;-62
2022/04/14 04:53:43;;;;;;;34.83;15.75;;;;;;;8.52;91.23;101983.16;5074396;28;20437;-62
2022/04/14 04:56:09;;;;;;;25.92;14.07;;;;;;;8.54;91.15;101984.84;5077085;28;20043;-61
2022/04/14 04:58:34;;;;;;;26.88;14.50;;;;;;;8.57;90.51;101987.38;5050110;28;20499;-62
2022/04/14 05:01:00;;;;;;;26.30;13.52;;;;;;;8.64;90.64;101984.50;5072942;28;20040;-61
2022/04/14 05:03:25;;;;;;;37.42;16.40;;;;;;;8.69;90.47;101990.53;5049081;28;20040;-62
2022/04/14 05:05:51;;;;;;;28.17;15.77;;;;;;;8.69;90.93;101988.72;5044866;28;20077;-61
2022/04/14 05:08:16;;;;;;;31.48;17.17;;;;;;;8.74;90.65;101983.25;5060375;28;20048;-62
2022/04/14 05:10:42;;;;;;;30.92;16.02;;;;;;;8.82;91.05;101992.66;5059512;28;20488;-62
2022/04/14 05:13:07;;;;;;;36.42;17.05;;;;;;;8.76;90.55;101998.19;5058798;28;20040;-61
2022/04/14 05:15:32;;;;;;;29.63;14.88;;;;;;;8.71;89.88;102002.81;5058936;28;20052;-62
2022/04/14 05:17:58;;;;;;;28.40;15.45;;;;;;;8.75;90.63;101999.13;5059635;28;20044;-61
2022/04/14 05:20:23;;;;;;;25.33;13.65;;;;;;;8.77;90.77;102005.25;5059794;28;20036;-61
2022/04/14 05:22:49;;;;;;;29.35;14.35;;;;;;;8.63;90.87;102007.53;5059956;28;20052;-61
2022/04/14 05:25:14;;;;;;;24.98;14.18;;;;;;;8.45;91.78;102006.44;5060471;28;20137;-62
2022/04/14 05:27:42;;;;;;;21.48;12.93;;;;;;;8.56;92.20;102014.88;5066266;28;20044;-61
2022/04/14 05:30:08;;;;;;;26.27;14.13;;;;;;;8.63;91.73;102017.31;5061796;28;20040;-61
2022/04/14 05:32:33;;;;;;;30.70;15.18;;;;;;;8.75;91.81;102020.41;5061738;28;20040;-63
2022/04/14 05:34:59;;;;;;;22.75;14.23;;;;;;;8.72;90.96;102015.19;5042887;28;20025;-61
2022/04/14 05:37:25;;;;;;;28.42;16.35;;;;;;;8.52;91.79;102017.72;5060830;28;20040;-61
2022/04/14 05:39:50;;;;;;;29.10;14.48;;;;;;;8.61;92.10;102016.50;5094332;28;20036;-63
2022/04/14 05:42:16;;;;;;;26.67;15.02;;;;;;;8.59;92.29;102019.25;5101686;28;20558;-63
2022/04/14 05:44:41;;;;;;;31.48;15.73;;;;;;;8.69;92.00;102015.31;5101651;28;20089;-61
2022/04/14 05:47:07;;;;;;;29.20;16.27;;;;;;;8.69;92.76;102019.78;5101638;28;20040;-63
2022/04/14 05:49:32;;;;;;;28.88;15.75;;;;;;;8.72;91.68;102024.97;5082484;28;20043;-64
2022/04/14 05:51:57;;;;;;;30.83;17.10;;;;;;;8.72;92.27;102019.63;5082524;28;20054;-62
2022/04/14 05:54:23;;;;;;;29.92;17.45;;;;;;;8.83;91.98;102017.44;5100976;28;20047;-63
2022/04/14 05:56:48;;;;;;;35.22;18.35;;;;;;;8.95;92.34;102025.00;5101884;28;20041;-61
2022/04/14 05:59:16;;;;;;;31.27;17.27;;;;;;;9.12;92.11;102021.69;5065414;28;20394;-64
2022/04/14 06:01:46;;;;;;;32.85;17.23;;;;;;;9.37;91.43;102020.72;5061937;28;20038;-61
2022/04/14 06:04:12;;;;;;;37.70;20.02;;;;;;;9.74;91.43;102018.34;5074910;28;20492;-61
2022/04/14 06:06:38;;;;;;;35.78;19.25;;;;;;;10.17;90.74;102019.19;5068991;28;20036;-62
2022/04/14 06:09:04;;;;;;;43.58;21.80;;;;;;;10.58;91.28;102027.22;5060817;28;20586;-61
2022/04/14 06:11:29;;;;;;;41.45;22.08;;;;;;;10.82;89.29;102034.13;5064387;28;20486;-62
2022/04/14 06:13:55;;;;;;;37.38;21.42;;;;;;;10.70;89.49;102029.34;5068325;28;20036;-62
2022/04/14 06:16:21;;;;;;;38.13;21.85;;;;;;;10.99;88.92;102028.00;5049553;28;20040;-62
2022/04/14 06:18:46;;;;;;;40.72;20.55;;;;;;;11.48;86.66;102030.19;5065144;28;20045;-62
2022/04/14 06:21:11;;;;;;;38.05;20.33;;;;;;;11.49;86.73;102031.91;5079012;28;20039;-62
2022/04/14 06:23:37;;;;;;;39.38;20.50;;;;;;;11.74;85.55;102039.59;5056331;28;20032;-62
2022/04/14 06:26:03;;;;;;;35.75;20.98;;;;;;;12.40;83.93;102030.03;5064715;28;20107;-62
2022/04/14 06:28:29;;;;;;;38.53;20.20;;;;;;;12.81;82.52;102028.78;5066753;28;20040;-62
2022/04/14 06:30:54;;;;;;;28.35;17.02;;;;;;;12.58;82.61;102033.53;5072732;28;20024;-62
2022/04/14 06:33:20;;;;;;;30.40;17.23;;;;;;;12.85;81.67;102036.56;5068405;28;20043;-62
2022/04/14 06:35:46;;;;;;;27.55;15.18;;;;;;;12.81;80.90;102037.69;5073080;28;20039;-62
2022/04/14 06:38:12;;;;;;;27.60;16.13;;;;;;;12.56;81.10;102037.25;5071890;28;20040;-62
2022/04/14 06:40:37;;;;;;;27.83;15.98;;;;;;;13.28;79.95;102039.59;5065754;28;20066;-62
2022/04/14 06:43:03;;;;;;;27.45;15.95;;;;;;;13.27;78.16;102040.56;5046042;28;20380;-62
2022/04/14 06:45:30;;;;;;;27.33;16.55;;;;;;;13.43;77.44;102038.75;5071428;28;20158;-62
2022/04/14 06:47:55;;;;;;;24.63;15.10;;;;;;;13.23;79.51;102038.13;5067650;28;20625;-62
2022/04/14 06:50:21;;;;;;;22.95;13.90;;;;;;;13.54;77.77;102046.19;5081921;28;20048;-62
2022/04/14 06:52:46;;;;;;;23.58;14.25;;;;;;;13.16;79.50;102043.81;5082692;28;20081;-62
2022/04/14 06:55:11;;;;;;;24.33;15.20;;;;;;;13.42;78.28;102041.53;5064684;28;20043;-62
2022/04/14 06:57:37;;;;;;;22.80;14.18;;;;;;;14.01;76.74;102039.91;5083372;28;20124;-62
2022/04/14 07:00:04;;;;;;;25.73;15.18;;;;;;;13.96;77.20;102040.19;5077424;28;20029;-62
2022/04/14 07:02:31;;;;;;;25.10;15.75;;;;;;;13.74;77.76;102045.03;5065920;28;20064;-62
2022/04/14 07:04:58;;;;;;;24.25;14.18;;;;;;;14.74;75.54;102040.88;5084027;28;20078;-65
2022/04/14 07:07:23;;;;;;;26.80;16.25;;;;;;;14.73;74.72;102043.66;5076116;28;20046;-63
2022/04/14 07:09:49;;;;;;;28.10;16.27;;;;;;;13.69;77.47;102042.63;5082945;28;20044;-62
2022/04/14 07:12:14;;;;;;;26.35;14.95;;;;;;;14.15;76.99;102041.75;5082590;28;20063;-62
2022/04/14 07:14:40;;;;;;;24.60;15.63;;;;;;;14.43;76.31;102036.47;5082019;28;20524;-62
2022/04/14 07:17:06;;;;;;;33.17;16.45;;;;;;;14.35;76.07;102040.56;5082701;28;20048;-62
2022/04/14 07:19:31;;;;;;;23.33;15.07;;;;;;;14.50;76.69;102039.69;5082585;28;20044;-62
2022/04/14 07:21:56;;;;;;;24.63;15.18;;;;;;;15.05;74.13;102044.34;5082377;28;20047;-63
2022/04/14 07:24:22;;;;;;;27.58;14.85;;;;;;;14.70;74.89;102031.28;5064473;28;20483;-62
2022/04/14 07:26:47;;;;;;;24.77;14.85;;;;;;;15.07;72.15;102033.50;5081773;28;20047;-62
2022/04/14 07:29:13;;;;;;;22.75;14.27;;;;;;;15.54;72.67;102031.31;5082873;28;20039;-62
2022/04/14 07:31:41;;;;;;;23.88;13.80;;;;;;;15.76;70.62;102029.91;5083192;28;20369;-62
2022/04/14 07:34:08;;;;;;;24.00;13.25;;;;;;;15.40;70.38;102031.34;5050684;28;20051;-62
2022/04/14 07:36:34;;;;;;;21.70;12.63;;;;;;;14.89;71.95;102039.06;5065126;28;20048;-62
2022/04/14 07:39:00;;;;;;;20.90;12.48;;;;;;;15.45;70.34;102034.59;5085137;28;20047;-62
2022/04/14 07:41:26;;;;;;;22.20;12.02;;;;;;;15.75;71.15;102038.97;5103112;28;20039;-62
2022/04/14 07:43:56;;;;;;;21.65;12.55;;;;;;;15.61;70.04;102036.28;5102569;28;20408;-63
2022/04/14 07:46:21;;;;;;;17.50;11.38;;;;;;;16.11;69.42;102038.31;5083855;28;20562;-62
2022/04/14 07:48:47;;;;;;;21.08;12.30;;;;;;;16.73;67.98;102040.41;5101944;28;20034;-62
2022/04/14 07:51:12;;;;;;;15.77;10.25;;;;;;;15.95;67.89;102059.16;5074902;28;20385;-62
2022/04/14 07:53:38;;;;;;;18.83;11.65;;;;;;;15.62;69.26;102054.16;5065529;28;20483;-62
2022/04/14 07:56:06;;;;;;;16.30;10.50;;;;;;;15.67;67.60;102055.63;5063123;28;20618;-63
2022/04/14 07:58:33;;;;;;;18.67;10.95;;;;;;;15.86;69.20;102052.56;5073519;28;20474;-64
2022/04/14 08:00:58;;;;;;;19.38;10.90;;;;;;;15.82;69.48;102056.44;5081430;28;20443;-62
2022/04/14 08:03:24;;;;;;;15.10;9.80;;;;;;;15.66;69.54;102055.69;5081523;28;20048;-62
2022/04/14 08:05:49;;;;;;;17.20;10.95;;;;;;;15.52;68.91;102061.97;5080774;28;20392;-62
2022/04/14 08:08:20;;;;;;;17.52;10.80;;;;;;;16.12;68.53;102056.22;5080933;28;20043;-62
2022/04/14 08:10:48;;;;;;;16.75;11.00;;;;;;;16.21;68.96;102050.19;5081512;28;20040;-63
2022/04/14 08:13:14;;;;;;;19.58;11.77;;;;;;;16.31;68.73;102050.44;5074714;28;20044;-63
2022/04/14 08:15:40;;;;;;;17.98;11.23;;;;;;;16.37;67.33;102049.16;5062238;28;20055;-65
2022/04/14 08:18:07;;;;;;;18.35;11.82;;;;;;;17.04;66.89;102050.72;5081703;28;20066;-63
2022/04/14 08:20:34;;;;;;;17.33;10.05;;;;;;;17.26;65.17;102050.03;5064657;28;20063;-62
2022/04/14 08:23:01;;;;;;;15.45;10.27;;;;;;;17.75;62.18;102046.47;5102034;28;20077;-62
2022/04/14 08:25:35;;;;;;;15.35;9.77;;;;;;;16.86;64.23;102046.63;5083864;28;20035;-62
2022/04/14 08:28:03;;;;;;;17.38;9.43;;;;;;;16.69;65.49;102045.09;5083659;28;20044;-62
2022/04/14 08:30:31;;;;;;;16.85;9.68;;;;;;;17.03;63.67;102045.44;5101792;28;20039;-62
2022/04/14 08:33:00;;;;;;;15.85;9.52;;;;;;;16.74;64.49;102050.19;5083787;28;20116;-63
2022/04/14 08:35:28;;;;;;;14.88;8.80;;;;;;;16.85;64.63;102050.31;5101579;28;20433;-63
2022/04/14 08:37:54;;;;;;;15.90;9.63;;;;;;;17.17;64.06;102055.22;5100215;28;20039;-62
2022/04/14 08:40:23;;;;;;;16.08;9.25;;;;;;;18.10;62.38;102056.47;5080251;28;20137;-62
2022/04/14 08:43:13;;;;;;;18.08;8.75;;;;;;;17.62;61.39;102053.75;5080390;28;20036;-62
2022/04/14 08:45:44;;;;;;;14.93;8.70;;;;;;;17.98;60.40;102057.41;5070584;28;20048;-62
2022/04/14 08:48:15;;;;;;;14.75;8.27;;;;;;;17.99;60.04;102061.81;5080412;28;20143;-62
2022/04/14 08:50:44;;;;;;;11.77;7.65;;;;;;;18.68;60.10;102057.44;5080755;28;20563;-62
2022/04/14 08:53:10;;;;;;;13.10;8.35;;;;;;;18.94;58.90;102055.38;5061936;28;20489;-63
2022/04/14 08:55:40;;;;;;;10.82;7.25;;;;;;;19.22;58.06;102051.28;5080436;28;20150;-63
2022/04/14 08:58:13;;;;;;;12.73;7.28;;;;;;;19.85;58.46;102043.47;5071498;28;20079;-63
2022/04/14 09:00:39;;;;;;;12.65;7.28;;;;;;;19.34;57.69;102050.31;5060435;28;20044;-63
2022/04/14 09:03:05;;;;;;;9.43;5.82;;;;;;;18.99;56.59;102039.63;5060520;28;20041;-63
2022/04/14 09:05:31;;;;;;;12.55;7.65;;;;;;;19.02;56.45;102036.66;5060708;28;20036;-63
2022/04/14 09:07:56;;;;;;;13.18;6.97;;;;;;;18.51;58.48;102037.06;5060334;28;20040;-64
2022/04/14 09:10:22;;;;;;;10.00;6.32;;;;;;;18.61;59.29;102031.81;5059915;28;20047;-62
2022/04/14 09:12:49;;;;;;;12.88;8.27;;;;;;;18.37;59.66;102037.28;5041574;28;20036;-63
2022/04/14 09:15:15;;;;;;;11.57;7.03;;;;;;;18.67;58.89;102027.75;5059896;28;20524;-62
2022/04/14 09:17:41;;;;;;;9.63;5.80;;;;;;;17.72;60.26;102035.00;5060167;28;20444;-62
2022/04/14 09:20:33;;;;;;;12.23;5.90;;;;;;;18.22;59.98;102025.81;5059478;28;20496;-62
2022/04/14 09:23:11;;;;;;;;;;;;;;;18.12;57.83;102030.19;5041858;28;20071;-62
2022/04/14 09:25:36;;;;;;;7.22;5.47;;;;;;;18.20;60.40;102029.63;5041288;28;19927;-62
2022/04/14 09:28:13;;;;;;;8.15;5.05;;;;;;;18.18;58.22;102031.59;5059613;28;20024;-62
2022/04/14 09:30:39;;;;;;;9.13;5.20;;;;;;;18.35;57.38;102029.31;5058971;28;20127;-62
2022/04/14 09:33:04;;;;;;;8.20;5.32;;;;;;;18.54;59.26;102038.69;5061464;28;20043;-62
2022/04/14 09:35:31;;;;;;;10.68;5.70;;;;;;;19.27;58.20;102037.41;5064272;28;20349;-63
2022/04/14 09:38:01;;;;;;;7.75;4.88;;;;;;;18.83;57.81;102031.88;5064289;28;20036;-62
2022/04/14 09:40:30;;;;;;;7.20;5.15;;;;;;;18.74;57.28;102035.31;5058843;28;20037;-62
2022/04/14 09:42:56;;;;;;;10.45;5.75;;;;;;;18.69;58.27;102036.66;5041186;28;20043;-62
2022/04/14 09:45:26;;;;;;;7.60;5.65;;;;;;;18.38;58.80;102030.91;5059237;28;20041;-63
2022/04/14 09:47:53;;;;;;;6.10;4.63;;;;;;;18.64;58.16;102024.34;5040587;28;20037;-62
2022/04/14 09:50:35;;;;;;;7.75;5.53;;;;;;;18.60;59.65;102024.69;5058844;28;20148;-61
2022/04/14 09:53:06;;;;;;;11.18;5.68;;;;;;;18.95;57.60;102024.63;5059299;28;20477;-62
2022/04/14 09:55:36;;;;;;;9.30;5.63;;;;;;;18.82;59.20;102022.03;5059952;28;20415;-62
2022/04/14 09:58:05;;;;;;;9.02;6.00;;;;;;;18.80;57.84;102012.34;5059926;28;20045;-62
2022/04/14 10:00:39;;;;;;;8.95;5.13;;;;;;;18.78;58.26;102008.91;5059290;28;20470;-62
2022/04/14 10:03:14;;;;;;;9.40;5.57;;;;;;;18.83;56.33;102014.81;5059386;28;20485;-62
2022/04/14 10:05:40;;;;;;;8.70;5.07;;;;;;;18.96;58.60;102011.97;5059179;28;20040;-62
2022/04/14 10:08:09;;;;;;;8.80;5.22;;;;;;;18.63;57.86;102006.41;5059445;28;20144;-63
2022/04/14 10:10:36;;;;;;;6.60;5.18;;;;;;;19.02;56.67;102008.78;5058757;28;20512;-63
2022/04/14 10:13:10;;;;;;;6.90;4.03;;;;;;;19.06;56.68;102004.84;5040947;28;20068;-64
2022/04/14 10:15:48;;;;;;;5.78;4.38;;;;;;;19.59;57.00;102005.91;5059091;28;20121;-63
2022/04/14 10:18:16;;;;;;;5.30;3.72;;;;;;;19.63;54.73;102007.38;5009016;28;20109;-62
2022/04/14 10:20:43;;;;;;;7.22;4.35;;;;;;;19.59;54.67;102014.03;5065701;28;20039;-62
2022/04/14 10:23:11;;;;;;;5.65;3.78;;;;;;;19.84;54.54;102020.09;5075504;28;20060;-62
2022/04/14 10:25:37;;;;;;;7.45;3.97;;;;;;;19.45;54.21;102035.06;5059815;28;20541;-65
2022/04/14 10:28:06;;;;;;;6.70;3.75;;;;;;;19.30;53.70;102034.47;5058785;28;20045;-63
2022/04/14 10:30:32;;;;;;;4.45;3.30;;;;;;;19.14;53.63;102037.53;5040469;28;20041;-62
2022/04/14 10:32:57;;;;;;;7.00;3.78;;;;;;;19.09;54.38;102035.22;5059300;28;20134;-63
2022/04/14 10:35:28;;;;;;;4.80;3.47;;;;;;;19.34;54.79;102039.50;5059385;28;20109;-63
2022/04/14 10:38:05;;;;;;;9.52;4.55;;;;;;;19.80;54.78;102035.72;5059199;28;20077;-62
2022/04/14 10:40:31;;;;;;;4.75;3.22;;;;;;;19.65;53.02;102037.88;5059725;28;20052;-62
2022/04/14 10:42:58;;;;;;;6.90;4.15;;;;;;;19.27;53.57;102035.56;5059312;28;20341;-63
2022/04/14 10:45:24;;;;;;;8.05;3.38;;;;;;;19.74;52.09;102033.53;5059172;28;20046;-62
2022/04/14 10:47:49;;;;;;;5.70;3.63;;;;;;;19.95;53.25;102027.31;5059389;28;20352;-63
2022/04/14 10:50:30;;;;;;;6.65;4.40;;;;;;;20.08;54.03;102017.16;5059543;28;20559;-62
2022/04/14 10:53:20;;;;;;;5.28;3.55;;;;;;;19.63;55.34;102023.63;5060210;28;20044;-62
2022/04/14 10:55:47;;;;;;;6.95;3.75;;;;;;;19.92;53.82;102021.16;5042389;28;20090;-62
2022/04/14 10:58:38;;;;;;;5.88;3.83;;;;;;;20.12;53.91;102030.31;5061337;28;20041;-62
2022/04/14 11:01:04;;;;;;;6.45;4.13;;;;;;;20.05;54.06;102039.94;5062187;28;20047;-62
2022/04/14 11:03:50;;;;;;;4.45;2.78;;;;;;;19.85;52.31;102032.66;5063784;28;20051;-61
2022/04/14 11:06:41;;;;;;;8.05;2.83;;;;;;;20.34;52.67;102028.50;5063422;28;20244;-63
2022/04/14 11:09:08;;;;;;;3.72;2.92;;;;;;;19.91;51.51;102030.28;5063984;28;20040;-62
2022/04/14 11:11:59;;;;;;;5.80;3.10;;;;;;;20.16;51.49;102028.19;5062886;28;20049;-62
2022/04/14 11:14:24;;;;;;;5.88;3.72;;;;;;;19.89;53.22;102031.41;5063056;28;20056;-62